sensor_id;sensor_type;location;lat;lon;timestamp;P1;durP1;ratioP1;P2;durP2;ratioP2
33098;SDS011;19465;49.016;11.414;2024-03-02T00:00:14;43.35;;;25.88;;
33098;SDS011;19465;49.016;11.414;2024-03-02T00:02:43;42.60;;;24.63;;
33098;SDS011;19465;49.016;11.414;2024-03-02T00:05:16;45.40;;;25.02;;
33098;SDS011;19465;49.016;11.414;2024-03-02T00:10:25;37.67;;;22.15;;
33098;SDS011;19465;49.016;11.414;2024-03-02T00:12:56;36.65;;;20.88;;
33098;SDS011;19465;49.016;11.414;2024-03-02T00:18:14;38.38;;;21.80;;
33098;SDS011;19465;49.016;11.414;2024-03-02T00:20:43;51.13;;;25.58;;
33098;SDS011;19465;49.016;11.414;2024-03-02T00:23:09;42.53;;;23.40;;
33098;SDS011;19465;49.016;11.414;2024-03-02T00:25:46;38.53;;;22.13;;
33098;SDS011;19465;49.016;11.414;2024-03-02T00:28:20;35.13;;;20.83;;
33098;SDS011;19465;49.016;11.414;2024-03-02T00:30:57;33.42;;;20.00;;
33098;SDS011;19465;49.016;11.414;2024-03-02T00:36:05;37.40;;;22.20;;
33098;SDS011;19465;49.016;11.414;2024-03-02T00:38:32;34.90;;;21.48;;
33098;SDS011;19465;49.016;11.414;2024-03-02T00:40:59;35.92;;;21.83;;
33098;SDS011;19465;49.016;11.414;2024-03-02T00:43:42;33.92;;;21.60;;
33098;SDS011;19465;49.016;11.414;2024-03-02T00:46:20;36.00;;;22.00;;
33098;SDS011;19465;49.016;11.414;2024-03-02T00:48:53;31.98;;;19.85;;
33098;SDS011;19465;49.016;11.414;2024-03-02T00:51:23;33.70;;;21.45;;
33098;SDS011;19465;49.016;11.414;2024-03-02T00:53:52;33.38;;;20.00;;
33098;SDS011;19465;49.016;11.414;2024-03-02T00:56:20;36.65;;;21.65;;
33098;SDS011;19465;49.016;11.414;2024-03-02T00:58:46;38.92;;;22.85;;
33098;SDS011;19465;49.016;11.414;2024-03-02T01:01:12;34.42;;;20.65;;
33098;SDS011;19465;49.016;11.414;2024-03-02T01:03:37;34.05;;;20.05;;
33098;SDS011;19465;49.016;11.414;2024-03-02T01:06:03;34.58;;;21.30;;
33098;SDS011;19465;49.016;11.414;2024-03-02T01:08:29;39.05;;;21.60;;
33098;SDS011;19465;49.016;11.414;2024-03-02T01:10:55;38.08;;;20.67;;
33098;SDS011;19465;49.016;11.414;2024-03-02T01:13:21;34.33;;;19.52;;
33098;SDS011;19465;49.016;11.414;2024-03-02T01:15:48;38.97;;;21.65;;
33098;SDS011;19465;49.016;11.414;2024-03-02T01:18:14;34.25;;;20.83;;
33098;SDS011;19465;49.016;11.414;2024-03-02T01:20:39;36.85;;;22.35;;
33098;SDS011;19465;49.016;11.414;2024-03-02T01:23:05;35.58;;;21.25;;
33098;SDS011;19465;49.016;11.414;2024-03-02T01:25:30;40.13;;;22.52;;
33098;SDS011;19465;49.016;11.414;2024-03-02T01:27:56;36.10;;;21.70;;
33098;SDS011;19465;49.016;11.414;2024-03-02T01:30:21;38.47;;;22.27;;
33098;SDS011;19465;49.016;11.414;2024-03-02T01:32:47;35.08;;;21.95;;
33098;SDS011;19465;49.016;11.414;2024-03-02T01:35:13;39.60;;;22.60;;
33098;SDS011;19465;49.016;11.414;2024-03-02T01:37:39;34.45;;;19.23;;
33098;SDS011;19465;49.016;11.414;2024-03-02T01:40:05;36.53;;;19.73;;
33098;SDS011;19465;49.016;11.414;2024-03-02T01:42:34;38.08;;;21.42;;
33098;SDS011;19465;49.016;11.414;2024-03-02T01:45:01;33.25;;;18.83;;
33098;SDS011;19465;49.016;11.414;2024-03-02T01:47:28;30.20;;;18.42;;
33098;SDS011;19465;49.016;11.414;2024-03-02T01:49:54;31.98;;;18.85;;
33098;SDS011;19465;49.016;11.414;2024-03-02T01:52:19;33.83;;;18.70;;
33098;SDS011;19465;49.016;11.414;2024-03-02T01:54:45;32.80;;;19.40;;
33098;SDS011;19465;49.016;11.414;2024-03-02T01:57:10;34.72;;;20.23;;
33098;SDS011;19465;49.016;11.414;2024-03-02T01:59:36;35.20;;;19.00;;
33098;SDS011;19465;49.016;11.414;2024-03-02T02:02:01;34.38;;;18.38;;
33098;SDS011;19465;49.016;11.414;2024-03-02T02:04:27;30.77;;;17.92;;
33098;SDS011;19465;49.016;11.414;2024-03-02T02:06:53;33.72;;;18.38;;
33098;SDS011;19465;49.016;11.414;2024-03-02T02:09:19;33.95;;;19.60;;
33098;SDS011;19465;49.016;11.414;2024-03-02T02:11:45;32.17;;;18.42;;
33098;SDS011;19465;49.016;11.414;2024-03-02T02:14:10;33.25;;;19.05;;
33098;SDS011;19465;49.016;11.414;2024-03-02T02:16:36;36.20;;;18.88;;
33098;SDS011;19465;49.016;11.414;2024-03-02T02:19:02;33.78;;;19.00;;
33098;SDS011;19465;49.016;11.414;2024-03-02T02:21:28;29.40;;;17.60;;
33098;SDS011;19465;49.016;11.414;2024-03-02T02:23:53;31.55;;;18.23;;
33098;SDS011;19465;49.016;11.414;2024-03-02T02:26:19;35.03;;;19.30;;
33098;SDS011;19465;49.016;11.414;2024-03-02T02:28:44;35.47;;;18.80;;
33098;SDS011;19465;49.016;11.414;2024-03-02T02:31:13;35.50;;;20.13;;
33098;SDS011;19465;49.016;11.414;2024-03-02T02:33:39;33.58;;;20.17;;
33098;SDS011;19465;49.016;11.414;2024-03-02T02:36:05;36.75;;;20.00;;
33098;SDS011;19465;49.016;11.414;2024-03-02T02:38:31;36.08;;;21.33;;
33098;SDS011;19465;49.016;11.414;2024-03-02T02:41:00;41.53;;;21.77;;
33098;SDS011;19465;49.016;11.414;2024-03-02T02:43:25;38.95;;;21.02;;
33098;SDS011;19465;49.016;11.414;2024-03-02T02:45:51;38.35;;;21.45;;
33098;SDS011;19465;49.016;11.414;2024-03-02T02:48:16;35.55;;;20.00;;
33098;SDS011;19465;49.016;11.414;2024-03-02T02:50:42;39.15;;;20.50;;
33098;SDS011;19465;49.016;11.414;2024-03-02T02:53:07;37.80;;;21.60;;
33098;SDS011;19465;49.016;11.414;2024-03-02T02:55:34;39.67;;;21.50;;
33098;SDS011;19465;49.016;11.414;2024-03-02T02:58:05;30.70;;;17.73;;
33098;SDS011;19465;49.016;11.414;2024-03-02T03:00:34;35.45;;;20.52;;
33098;SDS011;19465;49.016;11.414;2024-03-02T03:03:01;36.58;;;20.13;;
33098;SDS011;19465;49.016;11.414;2024-03-02T03:05:27;37.03;;;19.92;;
33098;SDS011;19465;49.016;11.414;2024-03-02T03:07:53;31.85;;;19.58;;
33098;SDS011;19465;49.016;11.414;2024-03-02T03:10:18;36.60;;;19.92;;
33098;SDS011;19465;49.016;11.414;2024-03-02T03:12:47;39.45;;;20.95;;
33098;SDS011;19465;49.016;11.414;2024-03-02T03:15:15;36.78;;;20.30;;
33098;SDS011;19465;49.016;11.414;2024-03-02T03:17:43;30.77;;;18.58;;
33098;SDS011;19465;49.016;11.414;2024-03-02T03:20:10;31.88;;;18.95;;
33098;SDS011;19465;49.016;11.414;2024-03-02T03:22:36;44.97;;;21.95;;
33098;SDS011;19465;49.016;11.414;2024-03-02T03:25:02;34.83;;;19.08;;
33098;SDS011;19465;49.016;11.414;2024-03-02T03:27:28;29.70;;;18.70;;
33098;SDS011;19465;49.016;11.414;2024-03-02T03:29:54;35.17;;;20.30;;
33098;SDS011;19465;49.016;11.414;2024-03-02T03:32:20;33.25;;;19.38;;
33098;SDS011;19465;49.016;11.414;2024-03-02T03:34:45;28.98;;;17.83;;
33098;SDS011;19465;49.016;11.414;2024-03-02T03:37:12;35.53;;;20.27;;
33098;SDS011;19465;49.016;11.414;2024-03-02T03:39:38;41.15;;;22.40;;
33098;SDS011;19465;49.016;11.414;2024-03-02T03:42:04;37.70;;;20.98;;
33098;SDS011;19465;49.016;11.414;2024-03-02T03:44:29;37.72;;;21.30;;
33098;SDS011;19465;49.016;11.414;2024-03-02T03:46:55;37.97;;;22.00;;
33098;SDS011;19465;49.016;11.414;2024-03-02T03:49:20;39.47;;;22.48;;
33098;SDS011;19465;49.016;11.414;2024-03-02T03:51:46;39.20;;;22.52;;
33098;SDS011;19465;49.016;11.414;2024-03-02T03:54:11;32.00;;;19.33;;
33098;SDS011;19465;49.016;11.414;2024-03-02T03:56:37;43.38;;;23.45;;
33098;SDS011;19465;49.016;11.414;2024-03-02T03:59:03;42.58;;;23.48;;
33098;SDS011;19465;49.016;11.414;2024-03-02T04:01:29;39.72;;;21.20;;
33098;SDS011;19465;49.016;11.414;2024-03-02T04:03:56;46.00;;;24.13;;
33098;SDS011;19465;49.016;11.414;2024-03-02T04:06:22;49.05;;;23.58;;
33098;SDS011;19465;49.016;11.414;2024-03-02T04:08:48;49.10;;;24.23;;
33098;SDS011;19465;49.016;11.414;2024-03-02T04:11:13;58.22;;;27.42;;
33098;SDS011;19465;49.016;11.414;2024-03-02T04:13:39;54.33;;;26.55;;
33098;SDS011;19465;49.016;11.414;2024-03-02T04:16:04;63.58;;;28.25;;
33098;SDS011;19465;49.016;11.414;2024-03-02T04:18:30;61.33;;;27.95;;
33098;SDS011;19465;49.016;11.414;2024-03-02T04:20:57;59.38;;;28.25;;
33098;SDS011;19465;49.016;11.414;2024-03-02T04:23:24;69.75;;;30.50;;
33098;SDS011;19465;49.016;11.414;2024-03-02T04:25:52;51.28;;;26.65;;
33098;SDS011;19465;49.016;11.414;2024-03-02T04:28:18;68.28;;;29.10;;
33098;SDS011;19465;49.016;11.414;2024-03-02T04:30:43;58.38;;;29.02;;
33098;SDS011;19465;49.016;11.414;2024-03-02T04:33:09;98.78;;;32.30;;
33098;SDS011;19465;49.016;11.414;2024-03-02T04:35:35;78.05;;;30.27;;
33098;SDS011;19465;49.016;11.414;2024-03-02T04:38:03;70.03;;;30.08;;
33098;SDS011;19465;49.016;11.414;2024-03-02T04:40:29;64.85;;;29.23;;
33098;SDS011;19465;49.016;11.414;2024-03-02T04:42:55;64.53;;;30.45;;
33098;SDS011;19465;49.016;11.414;2024-03-02T04:45:20;62.88;;;30.02;;
33098;SDS011;19465;49.016;11.414;2024-03-02T04:47:46;98.70;;;33.47;;
33098;SDS011;19465;49.016;11.414;2024-03-02T04:50:11;76.15;;;31.25;;
33098;SDS011;19465;49.016;11.414;2024-03-02T04:52:37;65.63;;;32.03;;
33098;SDS011;19465;49.016;11.414;2024-03-02T04:55:03;77.88;;;31.92;;
33098;SDS011;19465;49.016;11.414;2024-03-02T04:57:34;66.22;;;32.20;;
33098;SDS011;19465;49.016;11.414;2024-03-02T05:00:00;108.55;;;34.25;;
33098;SDS011;19465;49.016;11.414;2024-03-02T05:02:26;73.35;;;32.33;;
33098;SDS011;19465;49.016;11.414;2024-03-02T05:04:51;87.35;;;34.70;;
33098;SDS011;19465;49.016;11.414;2024-03-02T05:07:17;100.43;;;35.30;;
33098;SDS011;19465;49.016;11.414;2024-03-02T05:09:42;75.18;;;34.25;;
33098;SDS011;19465;49.016;11.414;2024-03-02T05:12:08;76.40;;;32.15;;
33098;SDS011;19465;49.016;11.414;2024-03-02T05:14:54;61.47;;;29.83;;
33098;SDS011;19465;49.016;11.414;2024-03-02T05:17:20;76.40;;;32.80;;
33098;SDS011;19465;49.016;11.414;2024-03-02T05:19:45;66.20;;;31.75;;
33098;SDS011;19465;49.016;11.414;2024-03-02T05:22:11;72.97;;;32.30;;
33098;SDS011;19465;49.016;11.414;2024-03-02T05:24:36;82.93;;;33.53;;
33098;SDS011;19465;49.016;11.414;2024-03-02T05:27:02;73.90;;;33.63;;
33098;SDS011;19465;49.016;11.414;2024-03-02T05:29:28;73.85;;;31.60;;
33098;SDS011;19465;49.016;11.414;2024-03-02T05:31:53;67.95;;;31.73;;
33098;SDS011;19465;49.016;11.414;2024-03-02T05:34:19;65.38;;;31.27;;
33098;SDS011;19465;49.016;11.414;2024-03-02T05:36:44;61.13;;;28.17;;
33098;SDS011;19465;49.016;11.414;2024-03-02T05:39:10;53.30;;;27.77;;
33098;SDS011;19465;49.016;11.414;2024-03-02T05:41:35;60.28;;;28.52;;
33098;SDS011;19465;49.016;11.414;2024-03-02T05:44:01;53.85;;;25.88;;
33098;SDS011;19465;49.016;11.414;2024-03-02T05:46:26;61.78;;;28.45;;
33098;SDS011;19465;49.016;11.414;2024-03-02T05:48:52;62.80;;;28.20;;
33098;SDS011;19465;49.016;11.414;2024-03-02T05:51:18;55.75;;;28.00;;
33098;SDS011;19465;49.016;11.414;2024-03-02T05:53:44;58.40;;;29.02;;
33098;SDS011;19465;49.016;11.414;2024-03-02T05:56:09;60.33;;;28.15;;
33098;SDS011;19465;49.016;11.414;2024-03-02T05:58:35;76.97;;;32.45;;
33098;SDS011;19465;49.016;11.414;2024-03-02T06:01:19;73.25;;;30.88;;
33098;SDS011;19465;49.016;11.414;2024-03-02T06:03:45;63.20;;;30.05;;
33098;SDS011;19465;49.016;11.414;2024-03-02T06:06:10;83.97;;;32.97;;
33098;SDS011;19465;49.016;11.414;2024-03-02T06:08:36;71.80;;;32.35;;
33098;SDS011;19465;49.016;11.414;2024-03-02T06:11:03;63.45;;;30.13;;
33098;SDS011;19465;49.016;11.414;2024-03-02T06:13:28;52.70;;;27.10;;
33098;SDS011;19465;49.016;11.414;2024-03-02T06:15:54;61.40;;;30.05;;
33098;SDS011;19465;49.016;11.414;2024-03-02T06:18:19;67.45;;;29.80;;
33098;SDS011;19465;49.016;11.414;2024-03-02T06:20:45;55.33;;;28.05;;
33098;SDS011;19465;49.016;11.414;2024-03-02T06:23:11;51.00;;;28.15;;
33098;SDS011;19465;49.016;11.414;2024-03-02T06:25:36;68.53;;;32.35;;
33098;SDS011;19465;49.016;11.414;2024-03-02T06:28:02;56.80;;;29.63;;
33098;SDS011;19465;49.016;11.414;2024-03-02T06:30:29;47.22;;;29.02;;
33098;SDS011;19465;49.016;11.414;2024-03-02T06:32:54;64.18;;;30.15;;
33098;SDS011;19465;49.016;11.414;2024-03-02T06:35:20;72.95;;;37.53;;
33098;SDS011;19465;49.016;11.414;2024-03-02T06:37:46;55.92;;;28.45;;
33098;SDS011;19465;49.016;11.414;2024-03-02T06:40:11;47.95;;;27.00;;
33098;SDS011;19465;49.016;11.414;2024-03-02T06:42:37;45.42;;;26.40;;
33098;SDS011;19465;49.016;11.414;2024-03-02T06:45:03;51.80;;;28.73;;
33098;SDS011;19465;49.016;11.414;2024-03-02T06:47:29;60.58;;;30.48;;
33098;SDS011;19465;49.016;11.414;2024-03-02T06:49:55;45.83;;;26.08;;
33098;SDS011;19465;49.016;11.414;2024-03-02T06:52:22;53.03;;;28.67;;
33098;SDS011;19465;49.016;11.414;2024-03-02T06:54:48;43.25;;;26.45;;
33098;SDS011;19465;49.016;11.414;2024-03-02T06:57:14;50.17;;;26.08;;
33098;SDS011;19465;49.016;11.414;2024-03-02T06:59:41;39.53;;;24.13;;
33098;SDS011;19465;49.016;11.414;2024-03-02T07:02:07;46.00;;;27.17;;
33098;SDS011;19465;49.016;11.414;2024-03-02T07:04:33;52.20;;;28.90;;
33098;SDS011;19465;49.016;11.414;2024-03-02T07:06:59;52.30;;;28.95;;
33098;SDS011;19465;49.016;11.414;2024-03-02T07:09:25;56.63;;;32.28;;
33098;SDS011;19465;49.016;11.414;2024-03-02T07:11:51;48.05;;;28.45;;
33098;SDS011;19465;49.016;11.414;2024-03-02T07:14:16;53.30;;;27.92;;
33098;SDS011;19465;49.016;11.414;2024-03-02T07:16:42;50.45;;;28.42;;
33098;SDS011;19465;49.016;11.414;2024-03-02T07:19:08;60.20;;;32.85;;
33098;SDS011;19465;49.016;11.414;2024-03-02T07:21:34;53.55;;;29.73;;
33098;SDS011;19465;49.016;11.414;2024-03-02T07:24:00;56.97;;;29.77;;
33098;SDS011;19465;49.016;11.414;2024-03-02T07:26:29;64.72;;;30.42;;
33098;SDS011;19465;49.016;11.414;2024-03-02T07:28:56;59.35;;;30.17;;
33098;SDS011;19465;49.016;11.414;2024-03-02T07:31:22;54.45;;;28.92;;
33098;SDS011;19465;49.016;11.414;2024-03-02T07:33:48;56.40;;;27.50;;
33098;SDS011;19465;49.016;11.414;2024-03-02T07:36:13;57.47;;;28.45;;
33098;SDS011;19465;49.016;11.414;2024-03-02T07:38:39;56.83;;;28.45;;
33098;SDS011;19465;49.016;11.414;2024-03-02T07:41:05;52.03;;;26.75;;
33098;SDS011;19465;49.016;11.414;2024-03-02T07:43:32;54.17;;;27.80;;
33098;SDS011;19465;49.016;11.414;2024-03-02T07:45:58;54.47;;;27.02;;
33098;SDS011;19465;49.016;11.414;2024-03-02T07:48:24;49.55;;;26.73;;
33098;SDS011;19465;49.016;11.414;2024-03-02T07:50:50;48.75;;;26.90;;
33098;SDS011;19465;49.016;11.414;2024-03-02T07:53:16;47.63;;;26.00;;
33098;SDS011;19465;49.016;11.414;2024-03-02T07:55:41;43.53;;;25.60;;
33098;SDS011;19465;49.016;11.414;2024-03-02T07:58:07;42.85;;;24.92;;
33098;SDS011;19465;49.016;11.414;2024-03-02T08:00:33;38.25;;;23.25;;
33098;SDS011;19465;49.016;11.414;2024-03-02T08:02:58;37.83;;;24.02;;
33098;SDS011;19465;49.016;11.414;2024-03-02T08:05:25;35.97;;;23.20;;
33098;SDS011;19465;49.016;11.414;2024-03-02T08:07:52;39.67;;;23.65;;
33098;SDS011;19465;49.016;11.414;2024-03-02T08:10:18;38.42;;;25.20;;
33098;SDS011;19465;49.016;11.414;2024-03-02T08:12:44;34.05;;;23.48;;
33098;SDS011;19465;49.016;11.414;2024-03-02T08:15:09;36.67;;;24.00;;
33098;SDS011;19465;49.016;11.414;2024-03-02T08:17:35;36.10;;;23.73;;
33098;SDS011;19465;49.016;11.414;2024-03-02T08:20:00;33.45;;;23.50;;
33098;SDS011;19465;49.016;11.414;2024-03-02T08:22:27;36.05;;;23.73;;
33098;SDS011;19465;49.016;11.414;2024-03-02T08:24:53;32.90;;;23.30;;
33098;SDS011;19465;49.016;11.414;2024-03-02T08:27:19;32.45;;;23.30;;
33098;SDS011;19465;49.016;11.414;2024-03-02T08:29:45;42.60;;;26.83;;
33098;SDS011;19465;49.016;11.414;2024-03-02T08:32:10;101.85;;;50.58;;
33098;SDS011;19465;49.016;11.414;2024-03-02T08:34:36;43.80;;;32.20;;
33098;SDS011;19465;49.016;11.414;2024-03-02T08:37:02;39.20;;;28.05;;
33098;SDS011;19465;49.016;11.414;2024-03-02T08:39:27;69.13;;;41.22;;
33098;SDS011;19465;49.016;11.414;2024-03-02T08:41:53;42.70;;;28.63;;
33098;SDS011;19465;49.016;11.414;2024-03-02T08:44:19;41.65;;;27.67;;
33098;SDS011;19465;49.016;11.414;2024-03-02T08:46:45;58.85;;;37.38;;
33098;SDS011;19465;49.016;11.414;2024-03-02T08:49:11;52.65;;;33.92;;
33098;SDS011;19465;49.016;11.414;2024-03-02T08:51:37;52.42;;;34.25;;
33098;SDS011;19465;49.016;11.414;2024-03-02T08:54:02;60.40;;;38.35;;
33098;SDS011;19465;49.016;11.414;2024-03-02T08:56:29;51.33;;;32.28;;
33098;SDS011;19465;49.016;11.414;2024-03-02T08:58:55;55.92;;;36.80;;
33098;SDS011;19465;49.016;11.414;2024-03-02T09:01:21;43.33;;;29.00;;
33098;SDS011;19465;49.016;11.414;2024-03-02T09:03:46;40.13;;;27.52;;
33098;SDS011;19465;49.016;11.414;2024-03-02T09:06:14;55.50;;;36.95;;
33098;SDS011;19465;49.016;11.414;2024-03-02T09:08:41;43.33;;;30.67;;
33098;SDS011;19465;49.016;11.414;2024-03-02T09:11:08;49.33;;;32.40;;
33098;SDS011;19465;49.016;11.414;2024-03-02T09:13:34;74.43;;;44.20;;
33098;SDS011;19465;49.016;11.414;2024-03-02T09:16:00;55.45;;;36.13;;
33098;SDS011;19465;49.016;11.414;2024-03-02T09:18:25;51.17;;;33.88;;
33098;SDS011;19465;49.016;11.414;2024-03-02T09:20:51;54.38;;;36.60;;
33098;SDS011;19465;49.016;11.414;2024-03-02T09:23:16;41.03;;;27.95;;
33098;SDS011;19465;49.016;11.414;2024-03-02T09:25:42;43.08;;;29.20;;
33098;SDS011;19465;49.016;11.414;2024-03-02T09:28:07;39.17;;;27.88;;
33098;SDS011;19465;49.016;11.414;2024-03-02T09:30:33;48.45;;;33.33;;
33098;SDS011;19465;49.016;11.414;2024-03-02T09:32:59;42.83;;;28.73;;
33098;SDS011;19465;49.016;11.414;2024-03-02T09:35:24;45.00;;;30.70;;
33098;SDS011;19465;49.016;11.414;2024-03-02T09:37:50;46.42;;;32.05;;
33098;SDS011;19465;49.016;11.414;2024-03-02T09:40:16;37.95;;;27.45;;
33098;SDS011;19465;49.016;11.414;2024-03-02T09:42:41;42.28;;;29.90;;
33098;SDS011;19465;49.016;11.414;2024-03-02T09:45:08;46.20;;;32.35;;
33098;SDS011;19465;49.016;11.414;2024-03-02T09:47:34;43.10;;;30.40;;
33098;SDS011;19465;49.016;11.414;2024-03-02T09:50:00;46.33;;;32.25;;
33098;SDS011;19465;49.016;11.414;2024-03-02T09:52:26;48.08;;;33.53;;
33098;SDS011;19465;49.016;11.414;2024-03-02T09:54:52;50.45;;;32.58;;
33098;SDS011;19465;49.016;11.414;2024-03-02T09:57:18;47.17;;;32.88;;
33098;SDS011;19465;49.016;11.414;2024-03-02T09:59:43;50.53;;;34.05;;
33098;SDS011;19465;49.016;11.414;2024-03-02T10:02:10;47.13;;;31.33;;
33098;SDS011;19465;49.016;11.414;2024-03-02T10:04:36;49.97;;;32.72;;
33098;SDS011;19465;49.016;11.414;2024-03-02T10:07:14;47.38;;;30.27;;
33098;SDS011;19465;49.016;11.414;2024-03-02T10:09:41;48.47;;;31.83;;
33098;SDS011;19465;49.016;11.414;2024-03-02T10:12:09;49.10;;;33.15;;
33098;SDS011;19465;49.016;11.414;2024-03-02T10:14:36;49.70;;;32.95;;
33098;SDS011;19465;49.016;11.414;2024-03-02T10:17:02;51.88;;;32.50;;
33098;SDS011;19465;49.016;11.414;2024-03-02T10:19:29;50.00;;;32.58;;
33098;SDS011;19465;49.016;11.414;2024-03-02T10:21:59;50.03;;;32.75;;
33098;SDS011;19465;49.016;11.414;2024-03-02T10:24:43;46.42;;;30.08;;
33098;SDS011;19465;49.016;11.414;2024-03-02T10:27:10;46.95;;;31.52;;
33098;SDS011;19465;49.016;11.414;2024-03-02T10:29:40;44.53;;;30.77;;
33098;SDS011;19465;49.016;11.414;2024-03-02T10:32:08;45.53;;;30.30;;
33098;SDS011;19465;49.016;11.414;2024-03-02T10:34:36;52.10;;;33.15;;
33098;SDS011;19465;49.016;11.414;2024-03-02T10:37:02;50.20;;;31.95;;
33098;SDS011;19465;49.016;11.414;2024-03-02T10:39:28;50.63;;;33.75;;
33098;SDS011;19465;49.016;11.414;2024-03-02T10:41:55;52.45;;;33.50;;
33098;SDS011;19465;49.016;11.414;2024-03-02T10:44:21;51.08;;;32.45;;
33098;SDS011;19465;49.016;11.414;2024-03-02T10:46:48;56.22;;;34.88;;
33098;SDS011;19465;49.016;11.414;2024-03-02T10:49:15;61.67;;;37.95;;
33098;SDS011;19465;49.016;11.414;2024-03-02T10:51:42;56.97;;;36.17;;
33098;SDS011;19465;49.016;11.414;2024-03-02T10:54:08;55.50;;;33.63;;
33098;SDS011;19465;49.016;11.414;2024-03-02T10:56:39;58.70;;;38.15;;
33098;SDS011;19465;49.016;11.414;2024-03-02T10:59:14;63.72;;;40.05;;
33098;SDS011;19465;49.016;11.414;2024-03-02T11:01:49;65.43;;;40.42;;
33098;SDS011;19465;49.016;11.414;2024-03-02T11:04:16;64.85;;;38.83;;
33098;SDS011;19465;49.016;11.414;2024-03-02T11:06:45;58.20;;;36.42;;
33098;SDS011;19465;49.016;11.414;2024-03-02T11:09:13;61.78;;;36.33;;
33098;SDS011;19465;49.016;11.414;2024-03-02T11:11:42;61.10;;;36.85;;
33098;SDS011;19465;49.016;11.414;2024-03-02T11:14:10;64.85;;;38.35;;
33098;SDS011;19465;49.016;11.414;2024-03-02T11:16:40;62.58;;;38.58;;
33098;SDS011;19465;49.016;11.414;2024-03-02T11:19:07;62.85;;;37.47;;
33098;SDS011;19465;49.016;11.414;2024-03-02T11:21:35;70.88;;;43.78;;
33098;SDS011;19465;49.016;11.414;2024-03-02T11:26:46;65.32;;;38.13;;
33098;SDS011;19465;49.016;11.414;2024-03-02T11:32:06;63.90;;;38.17;;
33098;SDS011;19465;49.016;11.414;2024-03-02T11:34:42;65.03;;;39.38;;
33098;SDS011;19465;49.016;11.414;2024-03-02T11:37:11;66.43;;;39.22;;
33098;SDS011;19465;49.016;11.414;2024-03-02T11:39:38;63.35;;;38.70;;
33098;SDS011;19465;49.016;11.414;2024-03-02T11:42:08;68.78;;;38.58;;
33098;SDS011;19465;49.016;11.414;2024-03-02T11:44:36;65.38;;;39.38;;
33098;SDS011;19465;49.016;11.414;2024-03-02T11:47:07;66.30;;;39.88;;
33098;SDS011;19465;49.016;11.414;2024-03-02T11:49:56;65.00;;;40.30;;
33098;SDS011;19465;49.016;11.414;2024-03-02T11:52:21;69.00;;;39.70;;
33098;SDS011;19465;49.016;11.414;2024-03-02T11:54:48;63.53;;;39.70;;
33098;SDS011;19465;49.016;11.414;2024-03-02T11:57:16;65.35;;;40.67;;
33098;SDS011;19465;49.016;11.414;2024-03-02T11:59:44;71.95;;;44.35;;
33098;SDS011;19465;49.016;11.414;2024-03-02T12:02:14;62.63;;;39.83;;
33098;SDS011;19465;49.016;11.414;2024-03-02T12:04:42;61.65;;;39.05;;
33098;SDS011;19465;49.016;11.414;2024-03-02T12:07:08;64.97;;;40.13;;
33098;SDS011;19465;49.016;11.414;2024-03-02T12:09:34;63.58;;;40.13;;
33098;SDS011;19465;49.016;11.414;2024-03-02T12:12:09;60.83;;;39.47;;
33098;SDS011;19465;49.016;11.414;2024-03-02T12:14:36;61.38;;;38.00;;
33098;SDS011;19465;49.016;11.414;2024-03-02T12:17:02;60.42;;;37.85;;
33098;SDS011;19465;49.016;11.414;2024-03-02T12:19:29;60.83;;;37.53;;
33098;SDS011;19465;49.016;11.414;2024-03-02T12:21:55;60.38;;;39.78;;
33098;SDS011;19465;49.016;11.414;2024-03-02T12:24:22;56.28;;;34.05;;
33098;SDS011;19465;49.016;11.414;2024-03-02T12:26:49;55.10;;;34.88;;
33098;SDS011;19465;49.016;11.414;2024-03-02T12:29:15;51.45;;;34.05;;
33098;SDS011;19465;49.016;11.414;2024-03-02T12:31:43;51.50;;;35.10;;
33098;SDS011;19465;49.016;11.414;2024-03-02T12:34:12;49.20;;;35.35;;
33098;SDS011;19465;49.016;11.414;2024-03-02T12:36:40;51.33;;;35.47;;
33098;SDS011;19465;49.016;11.414;2024-03-02T12:39:07;46.00;;;32.30;;
33098;SDS011;19465;49.016;11.414;2024-03-02T12:41:36;42.15;;;30.77;;
33098;SDS011;19465;49.016;11.414;2024-03-02T12:44:02;41.85;;;29.65;;
33098;SDS011;19465;49.016;11.414;2024-03-02T12:46:28;39.83;;;29.55;;
33098;SDS011;19465;49.016;11.414;2024-03-02T12:48:54;41.10;;;30.58;;
33098;SDS011;19465;49.016;11.414;2024-03-02T12:51:20;38.22;;;29.95;;
33098;SDS011;19465;49.016;11.414;2024-03-02T12:53:45;33.90;;;28.35;;
33098;SDS011;19465;49.016;11.414;2024-03-02T12:56:18;32.17;;;26.98;;
33098;SDS011;19465;49.016;11.414;2024-03-02T12:58:44;31.15;;;26.17;;
33098;SDS011;19465;49.016;11.414;2024-03-02T13:01:09;35.63;;;28.38;;
33098;SDS011;19465;49.016;11.414;2024-03-02T13:03:39;34.65;;;27.48;;
33098;SDS011;19465;49.016;11.414;2024-03-02T13:06:05;34.97;;;27.35;;
33098;SDS011;19465;49.016;11.414;2024-03-02T13:08:31;32.88;;;25.98;;
33098;SDS011;19465;49.016;11.414;2024-03-02T13:10:57;33.83;;;25.05;;
33098;SDS011;19465;49.016;11.414;2024-03-02T13:13:23;32.65;;;24.85;;
33098;SDS011;19465;49.016;11.414;2024-03-02T13:15:49;28.73;;;23.50;;
33098;SDS011;19465;49.016;11.414;2024-03-02T13:18:14;26.45;;;22.70;;
33098;SDS011;19465;49.016;11.414;2024-03-02T13:20:42;24.48;;;21.13;;
33098;SDS011;19465;49.016;11.414;2024-03-02T13:23:08;57.92;;;35.33;;
33098;SDS011;19465;49.016;11.414;2024-03-02T13:25:33;25.98;;;23.02;;
33098;SDS011;19465;49.016;11.414;2024-03-02T13:27:59;49.60;;;36.47;;
33098;SDS011;19465;49.016;11.414;2024-03-02T13:30:25;30.50;;;23.85;;
33098;SDS011;19465;49.016;11.414;2024-03-02T13:32:51;31.13;;;23.58;;
33098;SDS011;19465;49.016;11.414;2024-03-02T13:35:17;28.88;;;22.20;;
33098;SDS011;19465;49.016;11.414;2024-03-02T13:37:43;29.08;;;20.33;;
33098;SDS011;19465;49.016;11.414;2024-03-02T13:40:08;26.55;;;19.77;;
33098;SDS011;19465;49.016;11.414;2024-03-02T13:42:39;25.40;;;18.83;;
33098;SDS011;19465;49.016;11.414;2024-03-02T13:45:05;26.33;;;19.63;;
33098;SDS011;19465;49.016;11.414;2024-03-02T13:47:31;30.55;;;20.10;;
33098;SDS011;19465;49.016;11.414;2024-03-02T13:49:57;25.27;;;18.48;;
33098;SDS011;19465;49.016;11.414;2024-03-02T13:52:23;27.70;;;19.33;;
33098;SDS011;19465;49.016;11.414;2024-03-02T13:54:50;28.60;;;19.63;;
33098;SDS011;19465;49.016;11.414;2024-03-02T13:57:17;27.58;;;20.20;;
33098;SDS011;19465;49.016;11.414;2024-03-02T13:59:44;26.55;;;20.60;;
33098;SDS011;19465;49.016;11.414;2024-03-02T14:02:10;26.23;;;19.10;;
33098;SDS011;19465;49.016;11.414;2024-03-02T14:04:36;25.10;;;18.25;;
33098;SDS011;19465;49.016;11.414;2024-03-02T14:07:02;23.52;;;17.80;;
33098;SDS011;19465;49.016;11.414;2024-03-02T14:09:28;25.52;;;18.75;;
33098;SDS011;19465;49.016;11.414;2024-03-02T14:11:54;21.80;;;18.33;;
33098;SDS011;19465;49.016;11.414;2024-03-02T14:14:20;24.50;;;17.48;;
33098;SDS011;19465;49.016;11.414;2024-03-02T14:16:46;23.50;;;18.88;;
33098;SDS011;19465;49.016;11.414;2024-03-02T14:19:12;23.45;;;18.42;;